Time;durP1;ratioP1;P1;durP2;ratioP2;P2;SDS_P1;SDS_P2;PMS_P1;PMS_P2;Temp;Humidity;BMP_temperature;BMP_pressure;BME280_temperature;BME280_humidity;BME280_pressure;Samples;Min_cycle;Max_cycle;Signal;HPM_P1;HPM_P2
2022/09/20 00:00:12;;;;;;;4.45;1.23;;;11.00;99.90;;;;;;6217207;23;20078;-89
2022/09/20 00:02:40;;;;;;;8.05;1.38;;;10.80;99.90;;;;;;6195998;23;20020;-90
2022/09/20 00:05:07;;;;;;;4.15;1.27;;;10.70;99.90;;;;;;6192642;23;20008;-90
2022/09/20 00:07:42;;;;;;;6.22;0.93;;;10.90;99.90;;;;;;6194804;23;20091;-89
2022/09/20 00:17:24;;;;;;;8.07;1.60;;;10.50;99.90;;;;;;6210580;23;20018;-89
2022/09/20 00:20:25;;;;;;;;;;;;;;;;;;;;;
2022/09/20 00:27:04;;;;;;;5.55;1.10;;;10.10;99.90;;;;;;6093793;23;20069;-89
2022/09/20 00:30:30;;;;;;;8.18;1.30;;;10.00;99.90;;;;;;6031497;23;20017;-88
2022/09/20 00:37:25;;;;;;;;;;;;;;;;;;;;;
2022/09/20 00:44:43;;;;;;;5.13;1.30;;;9.90;99.90;;;;;;6046302;23;20106;-89
2022/09/20 00:51:13;;;;;;;4.55;1.30;;;9.00;99.90;;;;;;6194490;23;19970;-88
2022/09/20 00:54:11;;;;;;;6.47;0.95;;;9.90;99.90;;;;;;6194485;23;20012;-89
2022/09/20 01:00:34;;;;;;;6.60;1.30;;;9.80;99.90;;;;;;6109889;23;20026;-88
2022/09/20 01:03:06;;;;;;;5.40;1.45;;;9.90;99.90;;;;;;6108056;23;20013;-89
2022/09/20 01:05:36;;;;;;;4.30;1.30;;;9.80;99.90;;;;;;6163794;23;20013;-90
2022/09/20 01:12:35;;;;;;;8.02;1.30;;;9.90;99.90;;;;;;6066018;23;20504;-88
2022/09/20 01:15:14;;;;;;;5.63;1.20;;;9.70;99.90;;;;;;6128932;23;20020;-89
2022/09/20 01:17:48;;;;;;;9.80;1.20;;;9.90;99.90;;;;;;6138498;23;20016;-90
2022/09/20 01:20:34;;;;;;;3.78;1.27;;;10.00;99.90;;;;;;6185391;23;20468;-88
2022/09/20 01:23:46;;;;;;;6.93;1.38;;;9.90;99.90;;;;;;6163992;23;20023;-89
2022/09/20 01:29:56;;;;;;;4.65;1.40;;;8.50;99.90;;;;;;6186230;23;20541;-89
2022/09/20 01:32:43;;;;;;;6.65;1.98;;;10.00;99.90;;;;;;6162770;23;20020;-89
2022/09/20 01:35:16;;;;;;;6.30;2.00;;;10.90;99.90;;;;;;6162954;23;20013;-89
2022/09/20 01:38:14;;;;;;;7.70;2.30;;;9.10;99.90;;;;;;6163532;23;20020;-88
2022/09/20 01:41:09;;;;;;;8.93;2.03;;;11.00;99.90;;;;;;6163881;23;20019;-88
2022/09/20 01:43:44;;;;;;;7.72;2.38;;;8.90;99.90;;;;;;6162715;23;20013;-88
2022/09/20 01:46:53;;;;;;;6.20;2.38;;;9.50;99.90;;;;;;6163265;23;20015;-89
2022/09/20 01:49:55;;;;;;;8.07;2.15;;;9.50;99.90;;;;;;6187545;23;20020;-88
2022/09/20 01:52:49;;;;;;;6.10;1.90;;;9.40;99.90;;;;;;6161881;23;20012;-88
2022/09/20 01:55:59;;;;;;;4.90;2.30;;;8.10;99.90;;;;;;6163393;23;20017;-87
2022/09/20 01:59:27;;;;;;;;;;;;;;;;;;;;;
2022/09/20 02:03:27;;;;;;;;;;;;;;;;;;;;;
2022/09/20 02:06:32;;;;;;;8.45;2.90;;;9.10;99.90;;;;;;6243690;23;20340;-88
2022/09/20 02:09:24;;;;;;;6.53;2.58;;;9.30;99.90;;;;;;6204688;23;20009;-88
2022/09/20 02:12:15;;;;;;;;;;;;;;;;;;;;;
2022/09/20 02:15:19;;;;;;;10.02;3.42;;;9.10;99.90;;;;;;6243180;23;20008;-89
2022/09/20 02:18:20;;;;;;;10.45;2.92;;;9.20;99.90;;;;;;6203731;23;20070;-89
2022/09/20 02:21:10;;;;;;;12.45;3.00;;;7.50;99.90;;;;;;6117498;22;20012;-89
2022/09/20 02:24:46;;;;;;;;;;;;;;;;;;;;;
2022/09/20 02:27:15;;;;;;;10.98;3.25;;;9.20;99.90;;;;;;6120409;23;20068;-88
2022/09/20 02:29:47;;;;;;;5.80;2.28;;;9.00;99.90;;;;;;6203657;23;20020;-88
2022/09/20 02:32:27;;;;;;;6.85;3.38;;;8.90;99.90;;;;;;6218069;23;20055;-89
2022/09/20 02:35:25;;;;;;;8.65;2.72;;;8.90;99.90;;;;;;6218425;23;20019;-88
2022/09/20 02:38:24;;;;;;;8.18;2.80;;;8.70;99.90;;;;;;6218565;23;20066;-88
2022/09/20 02:41:47;;;;;;;9.50;2.63;;;8.70;99.90;;;;;;6217390;23;20051;-89
2022/09/20 02:44:31;;;;;;;7.05;2.15;;;8.60;99.90;;;;;;6102002;23;20013;-88
2022/09/20 02:47:19;;;;;;;9.40;2.80;;;8.80;99.90;;;;;;6217161;23;20016;-88
2022/09/20 02:49:56;;;;;;;4.90;2.35;;;8.50;99.90;;;;;;6214700;23;20012;-87
2022/09/20 02:52:48;;;;;;;4.45;2.20;;;8.50;99.90;;;;;;6215982;23;20457;-88
2022/09/20 02:55:30;;;;;;;11.23;2.80;;;7.40;99.90;;;;;;6217985;23;20012;-88
2022/09/20 02:58:25;;;;;;;11.07;2.67;;;8.70;99.90;;;;;;6216347;23;20012;-87
2022/09/20 03:01:12;;;;;;;5.15;2.38;;;8.50;99.90;;;;;;6216294;23;20016;-87
2022/09/20 03:04:16;;;;;;;7.32;2.50;;;8.40;99.90;;;;;;6216434;23;20020;-88
2022/09/20 03:07:11;;;;;;;7.32;2.50;;;8.50;99.90;;;;;;6217770;23;20162;-87
2022/09/20 03:09:59;;;;;;;9.45;3.00;;;8.50;99.90;;;;;;6216551;23;20013;-89
2022/09/20 03:13:01;;;;;;;10.68;3.45;;;8.60;99.90;;;;;;6219160;23;20048;-88
2022/09/20 03:15:38;;;;;;;11.13;2.85;;;10.30;99.90;;;;;;6216762;23;20023;-88
2022/09/20 03:18:36;;;;;;;10.80;3.10;;;8.60;99.90;;;;;;6216685;23;20020;-88
2022/09/20 03:21:25;;;;;;;10.25;2.70;;;8.60;99.90;;;;;;6207576;23;20328;-88
2022/09/20 03:24:17;;;;;;;7.43;2.30;;;8.20;99.90;;;;;;6217696;23;20012;-89
2022/09/20 03:27:13;;;;;;;12.68;2.78;;;8.30;99.90;;;;;;6217607;23;20247;-88
2022/09/20 03:29:58;;;;;;;7.50;2.50;;;8.30;99.90;;;;;;6168079;23;20014;-87
2022/09/20 03:32:51;;;;;;;4.15;2.03;;;8.80;99.90;;;;;;6218741;23;20111;-88
2022/09/20 03:35:55;;;;;;;5.00;2.40;;;7.80;99.90;;;;;;6218523;23;20012;-88
2022/09/20 03:38:55;;;;;;;7.80;2.58;;;8.10;99.90;;;;;;6103670;23;20013;-87
2022/09/20 03:41:51;;;;;;;10.05;2.80;;;8.30;99.90;;;;;;6219344;23;20008;-89
2022/09/20 03:44:26;;;;;;;5.15;2.60;;;8.10;99.90;;;;;;6219913;23;20498;-88
2022/09/20 03:47:04;;;;;;;7.53;2.88;;;8.20;99.90;;;;;;6219793;23;20020;-88
2022/09/20 03:49:49;;;;;;;9.15;2.97;;;8.10;99.90;;;;;;6218566;23;20008;-87
2022/09/20 03:52:54;;;;;;;6.07;2.70;;;8.10;99.90;;;;;;6219373;23;20447;-88
2022/09/20 03:55:57;;;;;;;7.80;2.45;;;8.40;99.90;;;;;;6219289;23;20637;-88
2022/09/20 03:59:12;;;;;;;4.78;2.42;;;8.10;99.90;;;;;;6217534;23;20012;-88
2022/09/20 04:01:55;;;;;;;10.60;2.42;;;8.30;99.90;;;;;;6218342;23;20017;-87
2022/09/20 04:05:23;;;;;;;6.85;2.30;;;8.30;99.90;;;;;;6217595;23;20020;-88
2022/09/20 04:08:01;;;;;;;6.70;2.30;;;8.70;99.90;;;;;;6119998;23;20017;-86
2022/09/20 04:10:56;;;;;;;7.93;2.10;;;8.20;99.90;;;;;;6132259;23;20017;-87
2022/09/20 04:17:31;;;;;;;10.00;4.00;;;8.60;99.90;;;;;;6204409;23;20050;-88
2022/09/20 04:20:24;;;;;;;10.93;2.45;;;8.10;99.90;;;;;;6218701;23;20016;-88
2022/09/20 04:22:54;;;;;;;5.07;2.38;;;6.70;99.90;;;;;;6216411;23;20101;-88
2022/09/20 04:25:29;;;;;;;6.85;2.25;;;8.10;99.90;;;;;;6219695;23;20039;-88
2022/09/20 04:28:03;;;;;;;5.30;1.70;;;10.00;99.90;;;;;;6219396;23;20333;-88
2022/09/20 04:30:36;;;;;;;10.02;2.40;;;8.30;99.90;;;;;;6219411;23;20376;-87
2022/09/20 04:33:17;;;;;;;6.45;2.38;;;9.70;99.90;;;;;;6220663;23;20333;-88
2022/09/20 04:38:51;;;;;;;7.38;2.05;;;8.40;99.90;;;;;;6244428;23;20739;-88
2022/09/20 04:41:49;;;;;;;10.60;2.22;;;7.30;99.90;;;;;;6219747;23;20376;-88
2022/09/20 04:44:39;;;;;;;7.07;2.10;;;8.30;99.90;;;;;;6219370;23;20012;-88
2022/09/20 04:47:30;;;;;;;6.22;1.90;;;8.40;99.90;;;;;;6219027;23;20460;-87
2022/09/20 04:50:12;;;;;;;5.32;2.10;;;8.40;99.90;;;;;;6220302;23;20091;-88
2022/09/20 04:52:59;;;;;;;6.32;2.00;;;8.30;99.90;;;;;;6217780;23;20043;-87
2022/09/20 04:55:51;;;;;;;5.97;2.03;;;8.60;99.90;;;;;;6218801;23;20100;-88
2022/09/20 04:58:38;;;;;;;6.95;2.30;;;8.70;99.90;;;;;;6218605;23;20019;-88
2022/09/20 05:01:31;;;;;;;11.35;2.65;;;8.60;99.90;;;;;;6217683;23;20028;-88
2022/09/20 05:04:16;;;;;;;7.50;2.20;;;10.10;99.90;;;;;;6219216;23;20055;-88
2022/09/20 05:07:15;;;;;;;6.70;2.30;;;8.60;99.90;;;;;;6217839;23;20016;-88
2022/09/20 05:09:47;;;;;;;9.18;2.30;;;8.80;99.90;;;;;;6218181;23;20052;-88
2022/09/20 05:12:55;;;;;;;;;;;;;;;;;;;;;
2022/09/20 05:15:46;;;;;;;7.10;3.13;;;8.50;99.90;;;;;;6244318;23;20081;-88
2022/09/20 05:18:42;;;;;;;8.00;3.40;;;6.80;99.90;;;;;;6219753;23;20019;-88
2022/09/20 05:21:57;;;;;;;8.73;3.35;;;8.70;99.90;;;;;;6228976;23;20016;-87
2022/09/20 05:24:53;;;;;;;6.95;3.03;;;8.60;99.90;;;;;;6201036;23;20372;-89
2022/09/20 05:27:40;;;;;;;9.85;2.90;;;8.70;99.90;;;;;;6217752;23;20020;-87
2022/09/20 05:30:09;;;;;;;7.30;3.33;;;8.70;99.90;;;;;;6219180;23;20519;-87
2022/09/20 05:32:59;;;;;;;8.52;2.95;;;8.70;99.90;;;;;;6217511;23;20016;-88
2022/09/20 05:35:53;;;;;;;6.90;2.70;;;10.60;99.90;;;;;;6243948;23;20012;-88
2022/09/20 05:38:46;;;;;;;8.57;3.05;;;10.20;99.90;;;;;;6217180;23;20020;-88
2022/09/20 05:41:34;;;;;;;11.38;3.00;;;9.00;99.90;;;;;;6214481;23;20015;-88
2022/09/20 05:44:30;;;;;;;5.35;2.83;;;9.20;99.90;;;;;;6215129;23;20048;-88
2022/09/20 05:47:20;;;;;;;5.05;3.10;;;9.30;99.90;;;;;;6243013;23;20020;-87
2022/09/20 05:49:55;;;;;;;10.73;3.05;;;9.30;99.90;;;;;;6216036;23;20051;-88
2022/09/20 05:52:43;;;;;;;6.35;2.47;;;9.60;99.90;;;;;;6216286;23;20716;-87
2022/09/20 05:55:21;;;;;;;9.63;2.65;;;9.60;99.90;;;;;;6216171;23;20754;-88
2022/09/20 05:58:03;;;;;;;6.60;2.67;;;9.90;99.90;;;;;;6214944;23;20016;-88
2022/09/20 06:00:37;;;;;;;6.88;2.40;;;9.90;99.90;;;;;;6215913;23;20073;-89
2022/09/20 06:03:43;;;;;;;5.60;2.15;;;10.10;99.90;;;;;;6240847;23;20016;-88
2022/09/20 06:06:16;;;;;;;5.90;1.98;;;10.10;99.90;;;;;;6119253;23;20023;-87
2022/09/20 06:09:04;;;;;;;6.00;1.95;;;10.10;99.90;;;;;;6215919;23;20062;-87
2022/09/20 06:12:06;;;;;;;4.20;1.95;;;10.30;99.90;;;;;;6217025;23;20040;-88
2022/09/20 06:14:50;;;;;;;6.20;2.55;;;10.30;99.90;;;;;;6215183;23;20099;-88
2022/09/20 06:17:41;;;;;;;6.68;2.25;;;10.00;99.90;;;;;;6215708;23;20016;-88
2022/09/20 06:20:38;;;;;;;5.55;2.00;;;10.30;99.90;;;;;;6216807;23;20016;-88
2022/09/20 06:23:04;;;;;;;6.60;2.10;;;10.50;99.90;;;;;;6216002;23;20013;-88
2022/09/20 06:25:41;;;;;;;7.43;1.90;;;10.40;99.90;;;;;;6216560;23;20035;-88
2022/09/20 06:28:20;;;;;;;7.32;2.00;;;10.90;99.90;;;;;;6218026;23;20019;-90
2022/09/20 06:30:55;;;;;;;8.25;2.17;;;12.30;99.90;;;;;;6194037;23;20483;-88
2022/09/20 06:33:27;;;;;;;7.57;1.98;;;9.90;99.90;;;;;;6194974;23;20074;-89
2022/09/20 06:42:20;;;;;;;5.07;1.20;;;11.30;99.90;;;;;;6243813;23;20020;-89
2022/09/20 06:44:46;;;;;;;7.28;1.50;;;11.70;99.90;;;;;;6218296;23;20024;-88
2022/09/20 06:47:15;;;;;;;1.45;0.90;;;11.70;99.90;;;;;;6218312;23;20038;-89
2022/09/20 06:49:49;;;;;;;2.15;0.95;;;11.60;99.90;;;;;;6217231;23;20023;-89
2022/09/20 06:52:24;;;;;;;2.20;1.15;;;11.30;99.90;;;;;;6218249;23;20008;-87
2022/09/20 06:54:55;;;;;;;3.05;1.10;;;11.10;99.90;;;;;;6220293;23;20012;-88
2022/09/20 06:57:33;;;;;;;8.65;1.52;;;11.40;99.90;;;;;;6194301;23;20039;-89
2022/09/20 06:59:59;;;;;;;6.20;1.48;;;11.10;99.90;;;;;;6216475;23;20381;-87
2022/09/20 07:02:29;;;;;;;3.10;1.33;;;11.30;99.90;;;;;;6218406;23;20026;-88
2022/09/20 07:04:59;;;;;;;6.82;1.40;;;11.80;99.90;;;;;;6193594;23;20047;-88
2022/09/20 07:07:31;;;;;;;4.47;1.20;;;11.60;99.90;;;;;;6199647;23;20012;-88
2022/09/20 07:10:00;;;;;;;2.20;0.90;;;11.70;99.90;;;;;;6198037;23;20627;-87
2022/09/20 07:12:30;;;;;;;2.78;0.95;;;11.50;99.90;;;;;;6198107;23;20446;-88
2022/09/20 07:14:55;;;;;;;4.70;1.25;;;11.50;99.90;;;;;;6225750;23;20019;-88
2022/09/20 07:17:30;;;;;;;4.57;1.20;;;11.50;99.90;;;;;;6205788;23;20012;-88
2022/09/20 07:20:05;;;;;;;3.75;1.02;;;11.30;99.90;;;;;;6234776;23;20091;-87
2022/09/20 07:22:31;;;;;;;4.47;1.50;;;11.80;99.90;;;;;;6199066;23;20445;-88
2022/09/20 07:25:01;;;;;;;6.35;1.48;;;11.30;99.90;;;;;;6194233;23;20012;-88
2022/09/20 07:27:28;;;;;;;5.03;1.40;;;11.70;99.90;;;;;;6220427;23;20356;-89
2022/09/20 07:30:07;;;;;;;4.63;1.20;;;11.60;99.90;;;;;;6196482;23;20115;-88
2022/09/20 07:32:33;;;;;;;5.85;1.50;;;11.60;99.90;;;;;;6198650;23;20008;-89
2022/09/20 07:35:00;;;;;;;2.58;1.50;;;11.50;99.90;;;;;;6195372;23;20520;-88
2022/09/20 07:37:25;;;;;;;3.67;1.10;;;11.40;99.90;;;;;;6223541;23;20019;-88
2022/09/20 07:39:51;;;;;;;1.98;1.20;;;11.30;99.90;;;;;;6218698;23;20012;-88
2022/09/20 07:42:17;;;;;;;6.22;2.13;;;11.70;99.90;;;;;;6192752;23;20016;-87
2022/09/20 07:44:43;;;;;;;6.47;2.17;;;11.60;99.90;;;;;;6194055;23;20062;-88
2022/09/20 07:47:09;;;;;;;6.57;1.67;;;11.90;99.90;;;;;;6217914;23;20012;-86
2022/09/20 07:49:36;;;;;;;3.58;2.22;;;11.90;99.90;;;;;;6245505;23;20012;-88
2022/09/20 07:52:03;;;;;;;5.05;2.00;;;11.90;99.90;;;;;;6222109;23;20349;-88
2022/09/20 07:54:32;;;;;;;6.80;1.60;;;11.90;99.90;;;;;;6223095;23;20016;-88
2022/09/20 07:57:05;;;;;;;5.13;1.65;;;12.10;99.90;;;;;;6171910;23;20020;-87
2022/09/20 07:59:31;;;;;;;3.83;2.42;;;12.40;99.90;;;;;;6194725;23;20030;-88
2022/09/20 08:01:59;;;;;;;7.20;1.50;;;12.50;99.90;;;;;;6218004;23;20023;-88
2022/09/20 08:04:28;;;;;;;3.90;1.58;;;12.20;99.90;;;;;;6170111;23;20091;-88
2022/09/20 08:06:54;;;;;;;4.40;1.00;;;12.30;99.90;;;;;;6218348;23;20087;-88
2022/09/20 08:09:24;;;;;;;5.10;1.10;;;12.50;99.90;;;;;;6194029;23;20050;-88
2022/09/20 08:11:54;;;;;;;2.63;1.02;;;11.50;99.90;;;;;;6194969;23;20012;-89
2022/09/20 08:14:23;;;;;;;5.13;1.08;;;12.40;99.90;;;;;;6218672;23;20054;-88
2022/09/20 08:16:50;;;;;;;2.85;1.00;;;12.90;99.90;;;;;;6243563;23;20130;-88
2022/09/20 08:19:21;;;;;;;3.17;0.90;;;12.60;99.90;;;;;;6218947;23;20020;-87
2022/09/20 08:21:48;;;;;;;5.10;0.90;;;13.00;99.90;;;;;;6218506;23;20310;-87
2022/09/20 08:24:16;;;;;;;4.13;0.95;;;11.60;99.90;;;;;;6218788;23;20012;-88
2022/09/20 08:26:44;;;;;;;1.88;0.70;;;12.90;99.90;;;;;;6218486;23;20020;-89
2022/09/20 08:29:11;;;;;;;3.83;0.90;;;13.10;99.90;;;;;;6219060;23;20329;-85
2022/09/20 08:31:41;;;;;;;5.45;1.20;;;13.30;99.90;;;;;;6195324;23;20051;-87
2022/09/20 08:34:10;;;;;;;4.95;1.50;;;13.50;99.90;;;;;;6217305;23;20019;-88
2022/09/20 08:36:40;;;;;;;3.05;0.70;;;14.20;99.90;;;;;;6218750;23;20019;-88
2022/09/20 08:39:05;;;;;;;5.05;0.85;;;13.40;99.90;;;;;;6218695;23;20034;-88
2022/09/20 08:41:42;;;;;;;5.43;1.17;;;14.00;99.90;;;;;;6218652;23;20020;-87
2022/09/20 08:44:14;;;;;;;3.20;1.10;;;14.20;99.90;;;;;;6218319;23;20028;-87
2022/09/20 08:47:14;;;;;;;3.55;0.90;;;14.40;99.90;;;;;;6219154;23;20047;-88
2022/09/20 08:49:42;;;;;;;5.05;0.80;;;14.60;99.90;;;;;;6201253;23;20062;-88
2022/09/20 08:52:15;;;;;;;3.97;1.00;;;14.80;99.90;;;;;;6219039;23;20043;-87
2022/09/20 08:54:42;;;;;;;5.55;0.98;;;14.80;99.90;;;;;;6219215;23;20547;-88
2022/09/20 08:57:16;;;;;;;2.33;0.85;;;14.80;99.90;;;;;;6193643;23;20012;-88
2022/09/20 08:59:45;;;;;;;5.32;1.30;;;14.30;99.90;;;;;;6218501;23;20310;-86
2022/09/20 09:02:18;;;;;;;4.60;0.90;;;13.90;99.90;;;;;;6218895;23;20024;-88
2022/09/20 09:04:44;;;;;;;3.08;1.20;;;14.20;99.90;;;;;;6218043;23;20008;-88
2022/09/20 09:07:21;;;;;;;4.80;0.88;;;14.30;99.90;;;;;;6218812;23;20012;-87
2022/09/20 09:09:56;;;;;;;2.97;1.00;;;13.60;99.90;;;;;;6195389;23;20047;-87
2022/09/20 09:12:25;;;;;;;2.53;0.98;;;13.80;99.90;;;;;;6195477;23;20016;-88
2022/09/20 09:15:03;;;;;;;3.55;0.82;;;14.60;99.90;;;;;;6218500;23;20460;-87
2022/09/20 09:17:29;;;;;;;3.35;1.02;;;14.70;99.90;;;;;;6215130;23;20022;-87
2022/09/20 09:20:13;;;;;;;3.10;0.85;;;15.00;99.90;;;;;;6242635;23;20779;-88
2022/09/20 09:22:41;;;;;;;3.95;0.90;;;15.20;99.90;;;;;;6219160;23;20016;-87
2022/09/20 09:25:13;;;;;;;3.03;0.90;;;15.30;99.90;;;;;;6218753;23;20012;-87
2022/09/20 09:27:55;;;;;;;3.40;0.80;;;15.30;99.90;;;;;;6218611;23;20020;-86
2022/09/20 09:30:34;;;;;;;3.22;0.80;;;15.30;99.90;;;;;;6218628;23;20015;-86
2022/09/20 09:33:29;;;;;;;2.40;0.60;;;15.70;99.90;;;;;;6218275;23;20081;-86
2022/09/20 09:36:09;;;;;;;4.68;0.90;;;15.80;99.90;;;;;;6218639;23;20341;-86
2022/09/20 09:38:42;;;;;;;1.90;0.57;;;16.10;99.90;;;;;;6244197;23;20012;-87
2022/09/20 09:41:17;;;;;;;1.40;0.47;;;15.80;99.90;;;;;;6218272;23;20052;-85
2022/09/20 09:43:44;;;;;;;2.05;0.73;;;16.00;99.90;;;;;;6218590;23;20404;-88
2022/09/20 09:46:17;;;;;;;2.47;0.75;;;15.90;99.90;;;;;;6218499;23;20095;-87
2022/09/20 09:48:48;;;;;;;1.40;0.43;;;15.20;99.90;;;;;;6218722;23;20130;-87
2022/09/20 09:51:19;;;;;;;1.70;0.65;;;15.80;99.90;;;;;;6218423;23;20062;-87
2022/09/20 09:53:50;;;;;;;1.20;0.60;;;15.70;99.90;;;;;;6218611;23;20016;-86
2022/09/20 09:56:40;;;;;;;1.15;0.60;;;14.60;99.90;;;;;;6218459;23;20325;-87
2022/09/20 09:59:56;;;;;;;1.30;0.60;;;15.60;99.90;;;;;;6217836;23;20692;-88
2022/09/20 10:02:22;;;;;;;;;;;15.20;99.90;;;;;;6218976;23;20028;-86
2022/09/20 10:05:29;;;;;;;2.58;0.52;;;15.30;99.90;;;;;;6218142;23;19961;-87
2022/09/20 10:08:09;;;;;;;1.58;0.60;;;15.40;99.90;;;;;;6218003;23;20012;-87
2022/09/20 10:11:06;;;;;;;2.30;0.57;;;15.70;99.90;;;;;;6218923;23;20158;-86
2022/09/20 10:13:38;;;;;;;3.35;0.80;;;15.80;99.90;;;;;;6218685;23;20453;-88
2022/09/20 10:16:37;;;;;;;1.63;0.60;;;15.90;99.90;;;;;;6218176;23;20098;-89
2022/09/20 10:19:12;;;;;;;2.70;0.68;;;16.00;99.90;;;;;;6174860;23;20023;-88
2022/09/20 10:21:55;;;;;;;4.80;0.90;;;16.10;99.90;;;;;;6218405;23;20050;-88
2022/09/20 10:24:54;;;;;;;3.45;0.70;;;16.00;99.90;;;;;;6217930;23;20016;-88
2022/09/20 10:27:29;;;;;;;1.27;0.52;;;16.10;99.90;;;;;;6218858;23;20023;-87
2022/09/20 10:30:09;;;;;;;4.05;1.02;;;16.30;99.90;;;;;;6218585;23;20016;-88
2022/09/20 10:33:15;;;;;;;3.42;1.08;;;16.40;99.90;;;;;;6218468;23;20012;-87
2022/09/20 10:35:55;;;;;;;4.53;0.95;;;16.60;99.90;;;;;;6218370;23;20445;-89
2022/09/20 10:38:29;;;;;;;3.33;0.95;;;16.80;99.90;;;;;;6217965;23;20027;-89
2022/09/20 10:44:27;;;;;;;3.22;0.98;;;16.60;99.90;;;;;;6243175;23;20094;-87
2022/09/20 10:47:15;;;;;;;4.50;1.00;;;16.60;99.90;;;;;;6243126;23;20127;-86
2022/09/20 10:49:59;;;;;;;6.10;1.10;;;16.70;99.90;;;;;;6218551;23;20012;-87
2022/09/20 10:53:04;;;;;;;2.80;0.90;;;16.80;99.90;;;;;;6239252;23;20019;-88
2022/09/20 10:55:40;;;;;;;4.28;0.98;;;16.80;99.90;;;;;;6218117;23;20447;-87
2022/09/20 10:58:46;;;;;;;3.92;0.90;;;16.70;99.90;;;;;;6217565;23;20881;-90
2022/09/20 11:01:36;;;;;;;4.40;0.93;;;17.10;99.90;;;;;;6218805;23;20101;-89
2022/09/20 11:04:20;;;;;;;3.30;0.90;;;16.60;99.90;;;;;;6217555;23;20433;-88
2022/09/20 11:06:58;;;;;;;2.28;0.90;;;16.40;99.90;;;;;;6218271;23;20012;-87
2022/09/20 11:09:29;;;;;;;8.68;1.20;;;16.40;99.90;;;;;;6217215;23;20016;-89
2022/09/20 11:12:31;;;;;;;10.05;1.50;;;16.40;99.90;;;;;;6217926;23;20015;-87
2022/09/20 11:15:44;;;;;;;4.60;0.80;;;16.10;99.90;;;;;;6217915;23;20059;-88
2022/09/20 11:18:31;;;;;;;9.55;1.52;;;16.10;99.90;;;;;;6168429;23;20012;-87
2022/09/20 11:21:10;;;;;;;4.15;1.15;;;15.90;99.90;;;;;;6217655;23;20009;-89
2022/09/20 11:23:45;;;;;;;4.50;1.58;;;15.80;99.90;;;;;;6217944;23;20076;-88
2022/09/20 11:26:18;;;;;;;3.00;1.17;;;15.80;99.90;;;;;;6217577;23;20020;-88
2022/09/20 11:29:19;;;;;;;5.38;1.15;;;15.80;99.90;;;;;;6217906;23;20012;-88
2022/09/20 11:32:02;;;;;;;4.15;1.13;;;16.90;99.90;;;;;;6175234;23;20024;-88
2022/09/20 11:34:36;;;;;;;6.93;1.40;;;16.20;99.90;;;;;;6217316;23;20081;-88
2022/09/20 11:37:56;;;;;;;3.08;1.00;;;16.30;99.90;;;;;;6222461;23;20020;-88
2022/09/20 11:41:21;;;;;;;;;;;;;;;;;;;;;
2022/09/20 11:43:48;;;;;;;5.93;1.17;;;17.00;99.90;;;;;;6237491;23;20012;-87
2022/09/20 11:46:39;;;;;;;4.75;1.00;;;17.20;99.90;;;;;;6192558;23;20328;-87
2022/09/20 11:49:47;;;;;;;3.28;1.10;;;16.80;99.90;;;;;;6218319;23;20008;-88
2022/09/20 11:52:32;;;;;;;6.38;1.30;;;18.10;99.90;;;;;;6219609;23;20016;-87
2022/09/20 11:55:34;;;;;;;3.67;1.17;;;17.00;99.90;;;;;;6219148;23;20051;-87
2022/09/20 11:58:12;;;;;;;3.70;0.98;;;16.40;99.90;;;;;;6219664;23;20016;-85
2022/09/20 12:00:42;;;;;;;4.93;1.08;;;16.30;99.90;;;;;;6213038;23;20318;-87
2022/09/20 12:03:35;;;;;;;4.82;1.25;;;16.10;99.90;;;;;;6218780;23;20488;-88
2022/09/20 12:06:34;;;;;;;4.95;1.10;;;15.90;99.90;;;;;;6219139;23;20110;-88
2022/09/20 12:09:40;;;;;;;2.72;0.90;;;15.60;99.90;;;;;;6220448;23;20043;-88
2022/09/20 12:12:40;;;;;;;4.80;1.13;;;15.60;99.90;;;;;;6104243;23;20064;-88
2022/09/20 12:15:28;;;;;;;3.88;1.35;;;14.30;99.90;;;;;;6088806;23;20013;-89
2022/09/20 12:17:57;;;;;;;4.18;1.42;;;15.40;99.90;;;;;;6201366;23;20082;-88
2022/09/20 12:20:33;;;;;;;7.75;1.10;;;15.50;99.90;;;;;;6219335;23;20059;-87
2022/09/20 12:23:39;;;;;;;2.75;0.70;;;15.70;99.90;;;;;;6218942;23;20012;-88
2022/09/20 12:26:36;;;;;;;4.15;0.90;;;16.00;99.90;;;;;;6219103;23;20017;-88
2022/09/20 12:29:22;;;;;;;3.13;0.82;;;15.60;99.90;;;;;;6219037;23;20057;-87
2022/09/20 12:31:54;;;;;;;2.53;0.93;;;16.40;99.90;;;;;;6218590;23;20380;-88
2022/09/20 12:34:22;;;;;;;2.13;0.80;;;16.10;99.90;;;;;;6195162;23;20023;-87
2022/09/20 12:37:19;;;;;;;4.55;0.95;;;15.80;99.90;;;;;;6219380;23;20016;-87
2022/09/20 12:40:17;;;;;;;3.58;0.70;;;15.90;99.90;;;;;;6219515;23;20012;-87
2022/09/20 12:43:25;;;;;;;1.80;0.80;;;15.90;99.90;;;;;;6219664;23;20142;-87
2022/09/20 12:46:21;;;;;;;2.28;0.70;;;15.40;99.90;;;;;;6239935;23;20020;-87
2022/09/20 12:48:49;;;;;;;2.88;0.77;;;16.00;99.90;;;;;;6209707;23;20040;-87
2022/09/20 12:55:06;;;;;;;2.25;0.70;;;16.20;99.90;;;;;;6244078;23;20410;-87
2022/09/20 12:57:38;;;;;;;3.63;0.90;;;16.30;99.90;;;;;;6216323;23;20070;-88
2022/09/20 13:00:58;;;;;;;4.25;0.82;;;16.20;99.90;;;;;;6193559;23;20027;-88
2022/09/20 13:04:21;;;;;;;2.78;1.05;;;15.30;99.90;;;;;;6143326;22;20021;-88
2022/09/20 13:07:18;;;;;;;1.90;0.60;;;16.30;99.90;;;;;;6218725;23;20091;-88
2022/09/20 13:09:50;;;;;;;5.32;1.10;;;16.50;99.90;;;;;;6200796;23;20070;-88
2022/09/20 13:12:55;;;;;;;1.73;0.65;;;16.80;99.90;;;;;;6193729;23;20012;-89
2022/09/20 13:15:23;;;;;;;2.83;0.80;;;16.10;99.90;;;;;;6243779;23;20400;-88
2022/09/20 13:18:28;;;;;;;;;;;;;;;;;;;;;
2022/09/20 13:21:44;;;;;;;2.25;0.65;;;16.00;99.90;;;;;;6243113;23;20433;-87
2022/09/20 13:24:17;;;;;;;3.70;0.80;;;16.30;99.90;;;;;;6217575;23;20522;-86
2022/09/20 13:31:38;;;;;;;3.45;1.17;;;15.60;99.90;;;;;;6152676;23;20068;-89
2022/09/20 13:34:31;;;;;;;4.00;1.20;;;16.20;99.90;;;;;;6082502;23;20013;-87
2022/09/20 13:37:03;;;;;;;10.10;1.35;;;16.20;99.90;;;;;;6109587;23;20052;-87
2022/09/20 13:39:41;;;;;;;4.20;1.00;;;16.10;99.90;;;;;;6109918;23;20493;-88
2022/09/20 13:42:21;;;;;;;4.95;1.20;;;16.20;99.90;;;;;;6175935;23;20510;-90
2022/09/20 13:44:47;;;;;;;2.08;0.90;;;16.40;99.90;;;;;;6218509;23;20066;-88
2022/09/20 13:47:40;;;;;;;5.00;1.23;;;16.40;99.90;;;;;;6193467;23;20441;-90
2022/09/20 13:50:18;;;;;;;1.65;0.60;;;16.00;99.90;;;;;;6102800;23;20009;-88
2022/09/20 13:53:02;;;;;;;2.83;0.85;;;16.00;99.90;;;;;;6244385;23;20008;-89
2022/09/20 13:55:44;;;;;;;2.95;0.95;;;16.00;99.90;;;;;;6218758;23;20043;-89
2022/09/20 14:02:13;;;;;;;4.43;1.25;;;15.90;99.90;;;;;;6126401;23;20553;-88
2022/09/20 14:04:50;;;;;;;3.50;0.85;;;15.90;99.90;;;;;;6103676;23;20509;-89
2022/09/20 14:07:40;;;;;;;3.17;0.70;;;15.50;99.90;;;;;;6126161;23;20017;-87
2022/09/20 14:11:14;;;;;;;2.90;0.80;;;15.90;99.90;;;;;;6135499;23;20052;-89
2022/09/20 14:13:46;;;;;;;0.90;0.63;;;16.00;99.90;;;;;;6067251;23;20017;-87
2022/09/20 14:16:38;;;;;;;4.10;0.75;;;15.60;99.90;;;;;;6103018;23;20025;-88
2022/09/20 14:19:45;;;;;;;1.27;0.60;;;15.40;99.90;;;;;;6103041;23;20014;-88
2022/09/20 14:22:43;;;;;;;2.00;0.70;;;15.60;99.90;;;;;;6124750;23;20336;-89
2022/09/20 14:25:12;;;;;;;2.50;0.70;;;15.50;99.90;;;;;;6102490;23;20521;-88
2022/09/20 14:28:27;;;;;;;;;;;;;;;;;;;;;
2022/09/20 14:31:16;;;;;;;5.40;1.05;;;15.50;99.90;;;;;;6243471;23;20025;-87
2022/09/20 14:33:57;;;;;;;4.78;1.13;;;15.40;99.90;;;;;;6160261;23;20013;-89
2022/09/20 14:36:51;;;;;;;2.20;0.93;;;15.50;99.90;;;;;;6217463;23;20016;-90
2022/09/20 14:39:23;;;;;;;3.75;0.93;;;15.20;99.90;;;;;;6218161;23;20039;-90
2022/09/20 14:42:25;;;;;;;4.20;0.88;;;15.60;99.90;;;;;;6218088;23;20548;-89
2022/09/20 14:45:05;;;;;;;;;;;;;;;;;;;;;
2022/09/20 14:51:37;;;;;;;3.20;1.00;;;14.60;99.90;;;;;;6151415;23;20465;-89
2022/09/20 14:55:08;;;;;;;4.35;1.17;;;15.30;99.90;;;;;;6107849;22;20013;-87
2022/09/20 14:58:23;;;;;;;3.05;0.80;;;14.10;99.90;;;;;;6071006;23;20021;-87
2022/09/20 15:01:21;;;;;;;1.55;0.70;;;14.20;99.90;;;;;;5984149;23;20075;-87
2022/09/20 15:04:04;;;;;;;4.20;1.27;;;14.90;99.90;;;;;;5989060;23;20023;-88
2022/09/20 15:07:10;;;;;;;;;;;;;;;;;;;;;
2022/09/20 15:10:12;;;;;;;3.38;0.88;;;14.80;99.90;;;;;;6023493;23;20053;-88
2022/09/20 15:12:52;;;;;;;1.80;0.57;;;13.70;99.90;;;;;;6016727;23;20482;-88
2022/09/20 15:15:20;;;;;;;1.77;0.68;;;14.30;99.90;;;;;;5994370;23;20442;-87
2022/09/20 15:18:05;;;;;;;;;;;;;;;;;;;;;
2022/09/20 15:20:51;;;;;;;2.40;0.60;;;13.40;99.90;;;;;;6015198;23;20499;-88
2022/09/20 15:23:31;;;;;;;2.00;0.77;;;15.20;99.90;;;;;;6042464;23;20023;-88
2022/09/20 15:26:05;;;;;;;2.47;0.73;;;14.30;99.90;;;;;;6021814;23;20011;-90
2022/09/20 15:28:46;;;;;;;2.05;0.65;;;14.10;99.90;;;;;;6046184;23;20021;-89
2022/09/20 15:31:18;;;;;;;2.35;0.75;;;14.10;99.90;;;;;;6107683;23;20009;-90
2022/09/20 15:33:46;;;;;;;2.90;0.98;;;14.20;99.90;;;;;;6164310;23;20016;-88
2022/09/20 15:36:21;;;;;;;3.08;0.70;;;14.10;99.90;;;;;;6189940;23;20434;-88
2022/09/20 15:39:14;;;;;;;2.17;0.68;;;14.00;99.90;;;;;;6160794;23;20016;-87
2022/09/20 15:41:44;;;;;;;2.75;1.02;;;13.90;99.90;;;;;;6164788;23;20020;-87
2022/09/20 15:44:16;;;;;;;2.83;0.80;;;14.10;99.90;;;;;;6140239;23;20062;-88